createdAt,value
2022-08-28T00:00:39.742Z,20.60
2022-08-28T00:03:06.603Z,20.60
2022-08-28T00:05:34.773Z,20.60
2022-08-28T00:08:01.531Z,20.60
2022-08-28T00:10:28.789Z,20.60
2022-08-28T00:12:58.167Z,20.60
2022-08-28T00:15:34.693Z,20.60
2022-08-28T00:18:03.651Z,20.60
2022-08-28T00:20:32.348Z,20.60
2022-08-28T00:23:00.346Z,20.60
2022-08-28T00:25:29.090Z,20.70
2022-08-28T00:27:58.351Z,20.70
2022-08-28T00:30:33.591Z,20.70
2022-08-28T00:33:06.984Z,20.70
2022-08-28T00:35:34.015Z,20.80
2022-08-28T00:38:00.857Z,20.80
2022-08-28T00:40:32.914Z,20.80
2022-08-28T00:43:05.073Z,20.80
2022-08-28T00:45:38.729Z,20.80
2022-08-28T00:48:06.700Z,20.80
2022-08-28T00:50:56.747Z,20.80
2022-08-28T00:53:30.160Z,20.80
2022-08-28T00:56:04.024Z,20.80
2022-08-28T00:58:34.066Z,20.80
2022-08-28T01:01:01.609Z,20.80
2022-08-28T01:03:28.513Z,20.80
2022-08-28T01:05:55.658Z,20.80
2022-08-28T01:08:23.045Z,20.80
2022-08-28T01:10:54.441Z,20.80
2022-08-28T01:13:23.467Z,20.80
2022-08-28T01:15:51.324Z,20.80
2022-08-28T01:18:19.191Z,20.80
2022-08-28T01:20:58.800Z,20.80
2022-08-28T01:23:53.306Z,20.80
2022-08-28T01:26:20.498Z,20.80
2022-08-28T01:28:48.042Z,20.80
2022-08-28T01:31:16.490Z,20.80
2022-08-28T01:33:45.353Z,20.80
2022-08-28T01:36:14.365Z,20.80
2022-08-28T01:38:43.063Z,20.80
2022-08-28T01:41:11.196Z,20.70
2022-08-28T01:43:40.047Z,20.80
2022-08-28T01:46:09.812Z,20.80
2022-08-28T01:48:41.094Z,20.80
2022-08-28T01:51:08.625Z,20.80
2022-08-28T01:53:35.361Z,20.70
2022-08-28T01:56:06.912Z,20.80
2022-08-28T01:58:37.933Z,20.80
2022-08-28T02:01:13.102Z,20.80
2022-08-28T02:03:40.254Z,20.80
2022-08-28T02:06:06.994Z,20.80
2022-08-28T02:08:33.754Z,20.80
2022-08-28T02:11:00.622Z,20.90
2022-08-28T02:13:27.571Z,20.80
2022-08-28T02:15:54.710Z,20.80
2022-08-28T02:18:21.843Z,20.80
2022-08-28T02:20:48.565Z,20.80
2022-08-28T02:23:15.309Z,20.80
2022-08-28T02:25:42.017Z,20.80
2022-08-28T02:28:09.192Z,20.80
2022-08-28T02:30:36.498Z,20.80
2022-08-28T02:33:03.602Z,20.80
2022-08-28T02:35:31.326Z,20.80
2022-08-28T02:38:00.566Z,20.80
2022-08-28T02:40:27.607Z,20.80
2022-08-28T02:42:54.414Z,20.80
2022-08-28T02:45:21.379Z,20.80
2022-08-28T02:47:50.930Z,20.70
2022-08-28T02:50:19.672Z,20.70
2022-08-28T02:52:46.756Z,20.70
2022-08-28T02:55:16.016Z,20.70
2022-08-28T02:57:42.857Z,20.70
2022-08-28T03:00:12.773Z,20.70
2022-08-28T03:02:40.918Z,20.70
2022-08-28T03:05:09.150Z,20.70
2022-08-28T03:07:35.981Z,20.70
2022-08-28T03:10:04.415Z,20.70
2022-08-28T03:12:31.069Z,20.70
2022-08-28T03:14:57.750Z,20.70
2022-08-28T03:17:24.428Z,20.70
2022-08-28T03:19:51.197Z,20.70
2022-08-28T03:22:39.521Z,20.70
2022-08-28T03:25:07.099Z,20.70
2022-08-28T03:27:33.989Z,20.70
2022-08-28T03:30:02.710Z,20.70
2022-08-28T03:32:29.646Z,20.70
2022-08-28T03:34:56.385Z,20.70
2022-08-28T03:37:23.102Z,20.70
2022-08-28T03:39:49.877Z,20.70
2022-08-28T03:42:17.239Z,20.70
2022-08-28T03:44:44.141Z,20.70
2022-08-28T03:47:12.228Z,20.70
2022-08-28T03:49:39.814Z,20.70
2022-08-28T03:52:06.690Z,20.60
2022-08-28T03:54:33.571Z,20.70
2022-08-28T03:57:00.415Z,20.60
2022-08-28T03:59:32.006Z,20.70
2022-08-28T04:02:00.382Z,20.60
2022-08-28T04:04:27.823Z,20.60
2022-08-28T04:06:54.565Z,20.50
2022-08-28T04:09:21.328Z,20.60
2022-08-28T04:11:47.996Z,20.50
2022-08-28T04:14:14.683Z,20.50
2022-08-28T04:16:41.487Z,20.50
2022-08-28T04:19:08.269Z,20.50
2022-08-28T04:21:34.921Z,20.50
2022-08-28T04:24:01.682Z,20.50
2022-08-28T04:26:29.250Z,20.50
2022-08-28T04:28:56.295Z,20.50
2022-08-28T04:31:32.027Z,20.50
2022-08-28T04:34:04.980Z,20.50
2022-08-28T04:36:33.545Z,20.50
2022-08-28T04:39:01.226Z,20.60
2022-08-28T04:41:28.793Z,20.60
2022-08-28T04:43:57.396Z,20.50
2022-08-28T04:46:25.184Z,20.50
2022-08-28T04:48:52.149Z,20.50
2022-08-28T04:51:20.289Z,20.60
2022-08-28T04:53:47.176Z,20.50
2022-08-28T04:56:15.124Z,20.50
2022-08-28T04:58:43.767Z,20.50
2022-08-28T05:01:24.611Z,20.50
2022-08-28T05:03:54.896Z,20.50
2022-08-28T05:06:22.821Z,20.50
2022-08-28T05:08:49.614Z,20.50
2022-08-28T05:11:33.650Z,20.50
2022-08-28T05:14:06.606Z,20.60
2022-08-28T05:16:39.717Z,20.60
2022-08-28T05:19:06.432Z,20.60
2022-08-28T05:21:33.146Z,20.50
2022-08-28T05:24:00.195Z,20.60
2022-08-28T05:26:29.611Z,20.60
2022-08-28T05:28:58.207Z,20.70
2022-08-28T05:31:26.400Z,20.70
2022-08-28T05:33:53.870Z,20.70
2022-08-28T05:36:22.943Z,20.70
2022-08-28T05:38:55.088Z,20.80
2022-08-28T05:41:25.029Z,20.80
2022-08-28T05:43:53.547Z,20.80
2022-08-28T05:46:21.216Z,20.90
2022-08-28T05:48:49.329Z,20.90
2022-08-28T05:51:22.328Z,20.90
2022-08-28T05:53:50.146Z,21.00
2022-08-28T05:56:22.022Z,21.10
2022-08-28T05:58:48.793Z,21.10
2022-08-28T06:01:22.693Z,21.20
2022-08-28T06:03:58.001Z,21.20
2022-08-28T06:06:27.034Z,21.20
2022-08-28T06:08:59.406Z,21.40
2022-08-28T06:11:30.677Z,21.50
2022-08-28T06:14:03.659Z,21.60
2022-08-28T06:16:32.521Z,21.70
2022-08-28T06:19:00.589Z,21.90
2022-08-28T06:21:28.461Z,22.00
2022-08-28T06:23:55.362Z,22.10
2022-08-28T06:26:23.074Z,22.30
2022-08-28T06:28:49.839Z,22.30
2022-08-28T06:31:23.584Z,22.40
2022-08-28T06:33:57.013Z,22.60
2022-08-28T06:36:27.295Z,22.60
2022-08-28T06:38:55.557Z,22.80
2022-08-28T06:41:22.308Z,23.00
2022-08-28T06:43:48.982Z,23.00
2022-08-28T06:46:16.302Z,23.10
2022-08-28T06:48:43.140Z,23.20
2022-08-28T06:51:12.117Z,23.40
2022-08-28T06:53:41.098Z,23.70
2022-08-28T06:56:26.553Z,24.10
2022-08-28T06:58:55.507Z,24.50
2022-08-28T07:01:26.906Z,25.10
2022-08-28T07:03:55.663Z,25.90
2022-08-28T07:06:23.601Z,26.60
2022-08-28T07:08:51.070Z,27.50
2022-08-28T07:11:19.798Z,28.30
2022-08-28T07:13:46.962Z,29.10
2022-08-28T07:16:15.944Z,30.20
2022-08-28T07:18:42.977Z,31.10
2022-08-28T07:21:12.475Z,31.70
2022-08-28T07:23:40.764Z,32.20
2022-08-28T07:26:10.928Z,32.10
2022-08-28T07:28:37.879Z,32.40
2022-08-28T07:31:09.845Z,32.90
2022-08-28T07:33:37.691Z,32.80
2022-08-28T07:36:07.092Z,33.00
2022-08-28T07:38:33.791Z,32.50
2022-08-28T07:41:00.478Z,32.30
2022-08-28T07:43:45.794Z,32.60
2022-08-28T07:46:12.843Z,33.00
2022-08-28T07:48:41.445Z,33.20
2022-08-28T07:51:09.539Z,33.10
2022-08-28T07:53:37.434Z,32.50
2022-08-28T07:56:05.221Z,32.00
2022-08-28T07:58:32.295Z,31.40
2022-08-28T08:00:59.301Z,30.90
2022-08-28T08:03:26.377Z,30.80
2022-08-28T08:05:59.360Z,30.80
2022-08-28T08:08:26.343Z,30.80
2022-08-28T08:11:18.517Z,30.50
2022-08-28T08:13:47.491Z,30.20
2022-08-28T08:16:20.252Z,29.90
2022-08-28T08:18:48.680Z,29.60
2022-08-28T08:21:17.713Z,29.30
2022-08-28T08:23:44.914Z,29.30
2022-08-28T08:26:14.841Z,29.30
2022-08-28T08:28:42.481Z,29.50
2022-08-28T08:31:11.022Z,29.60
2022-08-28T08:33:40.304Z,29.60
2022-08-28T08:36:07.555Z,29.60
2022-08-28T08:38:35.450Z,29.40
2022-08-28T08:41:06.748Z,29.50
2022-08-28T08:43:49.279Z,29.60
2022-08-28T08:46:16.124Z,29.90
2022-08-28T08:48:44.719Z,30.30
2022-08-28T08:51:20.525Z,30.40
2022-08-28T08:54:00.806Z,30.40
2022-08-28T08:56:34.693Z,30.40
2022-08-28T08:59:05.262Z,30.30
2022-08-28T09:02:01.270Z,30.30
2022-08-28T09:04:49.076Z,30.60
2022-08-28T09:07:18.603Z,30.80
2022-08-28T09:09:47.401Z,30.90
2022-08-28T09:12:18.960Z,30.80
2022-08-28T09:15:08.946Z,30.70
2022-08-28T09:17:38.293Z,30.60
2022-08-28T09:20:10.268Z,30.60
2022-08-28T09:22:40.111Z,30.80
2022-08-28T09:25:07.350Z,30.90
2022-08-28T09:27:37.915Z,31.20
2022-08-28T09:30:09.355Z,31.60
2022-08-28T09:32:44.470Z,31.90
2022-08-28T09:35:28.027Z,32.30
2022-08-28T09:37:55.573Z,32.60
2022-08-28T09:40:47.412Z,33.00
2022-08-28T09:43:27.656Z,33.00
2022-08-28T09:45:58.223Z,33.00
2022-08-28T09:48:35.915Z,33.00
2022-08-28T09:51:09.210Z,32.90
2022-08-28T09:53:53.505Z,32.70
2022-08-28T09:56:39.980Z,32.60
2022-08-28T09:59:13.328Z,32.60
2022-08-28T10:01:50.804Z,32.70
2022-08-28T10:04:55.407Z,32.80
2022-08-28T10:07:54.898Z,33.20
2022-08-28T10:10:39.249Z,33.50
2022-08-28T10:13:20.472Z,33.70
2022-08-28T10:16:13.847Z,33.80
2022-08-28T10:18:47.947Z,33.70
2022-08-28T10:21:43.107Z,33.50
2022-08-28T10:24:28.397Z,33.40
2022-08-28T10:27:31.623Z,33.50
2022-08-28T10:30:13.289Z,33.30
2022-08-28T10:32:56.745Z,33.50
2022-08-28T10:35:26.427Z,33.80
2022-08-28T10:38:16.898Z,34.20
2022-08-28T10:40:59.626Z,34.40
2022-08-28T10:43:38.558Z,34.60
2022-08-28T10:46:10.373Z,34.80
2022-08-28T10:49:08.939Z,35.00
2022-08-28T10:51:48.031Z,35.20
2022-08-28T10:54:27.254Z,35.30
2022-08-28T10:57:00.887Z,35.40
2022-08-28T10:59:31.787Z,35.60
2022-08-28T11:02:00.633Z,35.80
2022-08-28T11:04:29.394Z,35.90
2022-08-28T11:07:09.252Z,36.20
2022-08-28T11:09:39.614Z,36.20
2022-08-28T11:12:28.118Z,36.20
2022-08-28T11:14:54.815Z,36.30
2022-08-28T11:17:30.483Z,36.50
2022-08-28T11:20:18.177Z,36.60
2022-08-28T11:23:22.691Z,36.70
2022-08-28T11:25:54.819Z,36.60
2022-08-28T11:28:25.603Z,36.50
2022-08-28T11:31:00.953Z,36.50
2022-08-28T11:33:41.191Z,36.50
2022-08-28T11:36:20.151Z,36.60
2022-08-28T11:38:53.176Z,36.60
2022-08-28T11:41:31.683Z,36.70
2022-08-28T11:44:13.498Z,36.80
2022-08-28T11:46:51.782Z,36.90
2022-08-28T11:49:26.113Z,36.90
2022-08-28T11:52:04.812Z,37.10
2022-08-28T11:54:45.766Z,37.20
2022-08-28T11:57:40.464Z,37.10
2022-08-28T12:00:28.823Z,37.00
2022-08-28T12:03:10.453Z,37.10
2022-08-28T12:05:46.845Z,37.00
2022-08-28T12:08:56.635Z,37.00
2022-08-28T12:11:44.863Z,37.00
2022-08-28T12:14:27.470Z,36.90
2022-08-28T12:16:59.790Z,36.70
2022-08-28T12:19:40.242Z,36.70
2022-08-28T12:22:13.195Z,36.20
2022-08-28T12:24:59.175Z,35.60
2022-08-28T12:27:26.872Z,35.50
2022-08-28T12:29:56.445Z,35.00
2022-08-28T12:32:34.881Z,35.10
2022-08-28T12:35:02.097Z,35.30
2022-08-28T12:37:53.044Z,35.10
2022-08-28T12:40:50.148Z,34.90
2022-08-28T12:43:30.984Z,35.30
2022-08-28T12:46:02.437Z,35.40
2022-08-28T12:48:46.929Z,35.40
2022-08-28T12:51:18.338Z,35.30
2022-08-28T12:53:47.893Z,35.30
2022-08-28T12:56:18.084Z,35.10
2022-08-28T12:58:46.110Z,34.80
2022-08-28T13:01:23.216Z,34.40
2022-08-28T13:03:57.803Z,34.10
2022-08-28T13:06:31.162Z,33.80
2022-08-28T13:09:08.703Z,33.40
2022-08-28T13:11:38.684Z,33.20
2022-08-28T13:14:07.982Z,33.10
2022-08-28T13:16:42.217Z,33.20
2022-08-28T13:19:28.879Z,33.00
2022-08-28T13:22:08.353Z,33.00
2022-08-28T13:24:34.978Z,33.00
2022-08-28T13:27:18.953Z,33.10
2022-08-28T13:30:08.138Z,33.10
2022-08-28T13:32:37.862Z,33.00
2022-08-28T13:35:16.806Z,32.80
2022-08-28T13:37:53.861Z,32.60
2022-08-28T13:43:15.318Z,32.50
2022-08-28T13:45:45.216Z,32.50
2022-08-28T13:48:17.076Z,32.60
2022-08-28T13:50:48.254Z,32.50
2022-08-28T13:53:17.695Z,32.50
2022-08-28T13:55:45.380Z,32.50
2022-08-28T13:58:13.793Z,32.40
2022-08-28T14:00:44.304Z,32.20
2022-08-28T14:03:29.595Z,32.10
2022-08-28T14:05:56.582Z,31.90
2022-08-28T14:08:24.052Z,31.90
2022-08-28T14:10:50.812Z,31.90
2022-08-28T14:13:18.696Z,31.80
2022-08-28T14:15:45.724Z,31.70
2022-08-28T14:18:12.404Z,31.60
2022-08-28T14:20:39.592Z,31.50
2022-08-28T14:23:06.311Z,31.50
2022-08-28T14:25:37.092Z,31.50
2022-08-28T14:28:05.831Z,31.40
2022-08-28T14:30:32.521Z,31.40
2022-08-28T14:32:59.298Z,31.40
2022-08-28T14:35:26.656Z,31.40
2022-08-28T14:37:53.367Z,31.40
2022-08-28T14:40:20.064Z,31.30
2022-08-28T14:42:46.821Z,31.30
2022-08-28T14:45:13.758Z,31.20
2022-08-28T14:47:40.503Z,31.00
2022-08-28T14:50:07.668Z,31.00
2022-08-28T14:52:34.452Z,30.80
2022-08-28T14:55:02.104Z,30.80
2022-08-28T14:57:29.295Z,30.70
2022-08-28T14:59:55.971Z,30.70
2022-08-28T15:02:22.636Z,30.60
2022-08-28T15:04:49.331Z,30.60
2022-08-28T15:07:16.014Z,30.60
2022-08-28T15:09:43.188Z,30.50
2022-08-28T15:12:10.419Z,30.50
2022-08-28T15:14:37.163Z,30.50
2022-08-28T15:17:04.830Z,30.50
2022-08-28T15:19:31.674Z,30.50
2022-08-28T15:21:58.846Z,30.60
2022-08-28T15:24:31.365Z,30.70
2022-08-28T15:26:59.529Z,30.60
2022-08-28T15:29:27.997Z,30.50
2022-08-28T15:31:55.320Z,30.30
2022-08-28T15:34:26.449Z,30.20
2022-08-28T15:36:55.891Z,30.00
2022-08-28T15:39:46.067Z,29.70
2022-08-28T15:42:13.140Z,29.50
2022-08-28T15:44:40.414Z,29.40
2022-08-28T15:47:07.593Z,29.30
2022-08-28T15:49:46.589Z,29.10
2022-08-28T15:52:15.768Z,29.00
2022-08-28T15:54:42.986Z,28.90
2022-08-28T15:57:09.778Z,28.80
2022-08-28T15:59:39.951Z,28.70
2022-08-28T16:02:21.161Z,28.70
2022-08-28T16:04:48.575Z,28.60
2022-08-28T16:07:15.475Z,28.60
2022-08-28T16:09:42.172Z,28.60
2022-08-28T16:12:09.073Z,28.60
2022-08-28T16:14:36.194Z,28.50
2022-08-28T16:17:05.759Z,28.50
2022-08-28T16:19:40.917Z,28.40
2022-08-28T16:22:09.106Z,28.40
2022-08-28T16:24:36.853Z,28.20
2022-08-28T16:27:04.363Z,28.10
2022-08-28T16:29:33.262Z,28.10
2022-08-28T16:31:59.956Z,28.20
2022-08-28T16:34:31.476Z,28.20
2022-08-28T16:36:59.252Z,28.20
2022-08-28T16:39:27.265Z,28.20
2022-08-28T16:41:53.936Z,28.20
2022-08-28T16:44:22.864Z,28.20
2022-08-28T16:46:50.204Z,28.20
2022-08-28T16:49:17.615Z,28.00
2022-08-28T16:51:44.632Z,28.00
2022-08-28T16:54:11.343Z,27.90
2022-08-28T16:56:39.345Z,27.70
2022-08-28T16:59:10.437Z,27.70
2022-08-28T17:01:37.796Z,27.70
2022-08-28T17:04:07.722Z,27.60
2022-08-28T17:06:35.430Z,27.50
2022-08-28T17:09:02.124Z,27.50
2022-08-28T17:11:29.348Z,27.30
2022-08-28T17:13:56.833Z,27.30
2022-08-28T17:16:25.492Z,27.20
2022-08-28T17:18:53.170Z,27.00
2022-08-28T17:21:45.275Z,26.90
2022-08-28T17:24:12.854Z,26.70
2022-08-28T17:26:41.086Z,26.60
2022-08-28T17:29:08.477Z,26.50
2022-08-28T17:31:35.517Z,26.30
2022-08-28T17:34:02.407Z,26.20
2022-08-28T17:36:33.367Z,26.10
2022-08-28T17:39:05.423Z,26.00
2022-08-28T17:41:33.421Z,25.90
2022-08-28T17:44:01.712Z,25.80
2022-08-28T17:46:31.745Z,25.60
2022-08-28T17:49:01.315Z,25.60
2022-08-28T17:51:41.803Z,25.50
2022-08-28T17:54:11.656Z,25.40
2022-08-28T17:56:38.410Z,25.30
2022-08-28T17:59:05.406Z,25.20
2022-08-28T18:01:32.291Z,25.10
2022-08-28T18:03:59.049Z,25.00
2022-08-28T18:06:25.784Z,24.80
2022-08-28T18:08:52.500Z,24.80
2022-08-28T18:11:19.326Z,24.60
2022-08-28T18:13:46.524Z,24.50
2022-08-28T18:16:13.367Z,24.50
2022-08-28T18:18:40.552Z,24.30
2022-08-28T18:21:08.975Z,24.10
2022-08-28T18:23:35.761Z,23.90
2022-08-28T18:26:02.538Z,23.80
2022-08-28T18:28:29.453Z,23.70
2022-08-28T18:30:56.230Z,23.60
2022-08-28T18:33:24.415Z,23.50
2022-08-28T18:35:52.270Z,23.30
2022-08-28T18:38:21.443Z,23.20
2022-08-28T18:40:48.258Z,23.10
2022-08-28T18:43:15.004Z,23.10
2022-08-28T18:45:41.730Z,23.00
2022-08-28T18:48:08.454Z,22.80
2022-08-28T18:50:35.523Z,22.80
2022-08-28T18:53:02.629Z,22.80
2022-08-28T18:55:31.138Z,22.70
2022-08-28T18:57:59.723Z,22.70
2022-08-28T19:00:27.043Z,22.60
2022-08-28T19:02:54.532Z,22.60
2022-08-28T19:05:22.156Z,22.60
2022-08-28T19:07:49.163Z,22.50
2022-08-28T19:10:32.543Z,22.50
2022-08-28T19:13:00.886Z,22.50
2022-08-28T19:15:28.389Z,22.40
2022-08-28T19:17:55.164Z,22.50
2022-08-28T19:20:22.516Z,22.40
2022-08-28T19:22:49.462Z,22.40
2022-08-28T19:25:27.604Z,22.30
2022-08-28T19:27:56.368Z,22.30
2022-08-28T19:30:27.239Z,22.30
2022-08-28T19:32:54.830Z,22.20
2022-08-28T19:35:24.800Z,22.10
2022-08-28T19:37:52.685Z,22.10
2022-08-28T19:40:20.524Z,22.00
2022-08-28T19:42:47.940Z,22.00
2022-08-28T19:45:15.345Z,21.90
2022-08-28T19:47:42.556Z,21.90
2022-08-28T19:50:11.065Z,21.90
2022-08-28T19:52:38.386Z,21.80
2022-08-28T19:55:06.053Z,21.80
2022-08-28T19:57:34.221Z,21.80
2022-08-28T20:00:01.087Z,21.70
2022-08-28T20:02:28.484Z,21.70
2022-08-28T20:04:55.397Z,21.60
2022-08-28T20:07:22.326Z,21.60
2022-08-28T20:09:49.006Z,21.60
2022-08-28T20:12:16.053Z,21.50
2022-08-28T20:14:44.619Z,21.50
2022-08-28T20:17:11.587Z,21.50
2022-08-28T20:19:38.545Z,21.50
2022-08-28T20:22:05.824Z,21.50
2022-08-28T20:24:32.694Z,21.40
2022-08-28T20:26:59.356Z,21.40
2022-08-28T20:29:26.120Z,21.40
2022-08-28T20:31:54.141Z,21.40
2022-08-28T20:34:21.537Z,21.40
2022-08-28T20:36:49.175Z,21.30
2022-08-28T20:39:16.322Z,21.30
2022-08-28T20:41:44.280Z,21.30
2022-08-28T20:44:13.727Z,21.20
2022-08-28T20:46:42.177Z,21.20
2022-08-28T20:49:12.847Z,21.20
2022-08-28T20:51:54.401Z,21.10
2022-08-28T20:54:24.051Z,21.00
2022-08-28T20:56:52.045Z,21.00
2022-08-28T20:59:20.250Z,20.90
2022-08-28T21:01:49.158Z,20.90
2022-08-28T21:04:16.240Z,20.80
2022-08-28T21:06:46.477Z,20.80
2022-08-28T21:09:16.966Z,20.70
2022-08-28T21:11:44.253Z,20.70
2022-08-28T21:14:11.100Z,20.70
2022-08-28T21:16:39.237Z,20.60
2022-08-28T21:19:15.952Z,20.60
2022-08-28T21:21:44.049Z,20.60
2022-08-28T21:24:12.537Z,20.50
2022-08-28T21:26:43.795Z,20.50
2022-08-28T21:29:11.253Z,20.50
2022-08-28T21:31:40.874Z,20.40
2022-08-28T21:34:09.412Z,20.40
2022-08-28T21:36:38.382Z,20.30
2022-08-28T21:39:06.134Z,20.30
2022-08-28T21:41:33.189Z,20.40
2022-08-28T21:43:59.949Z,20.30
2022-08-28T21:46:27.761Z,20.30
2022-08-28T21:48:56.180Z,20.30
2022-08-28T21:51:24.191Z,20.30
2022-08-28T21:53:52.717Z,20.20
2022-08-28T21:56:25.244Z,20.20
2022-08-28T21:58:53.849Z,20.20
2022-08-28T22:01:24.393Z,20.10
2022-08-28T22:03:51.476Z,20.10
2022-08-28T22:06:20.217Z,20.20
2022-08-28T22:08:47.542Z,20.10
2022-08-28T22:11:14.874Z,20.10
2022-08-28T22:13:42.466Z,20.00
2022-08-28T22:16:10.502Z,20.00
2022-08-28T22:18:37.871Z,20.00
2022-08-28T22:21:23.410Z,20.00
2022-08-28T22:23:50.457Z,20.00
2022-08-28T22:26:20.246Z,19.90
2022-08-28T22:28:47.323Z,19.90
2022-08-28T22:31:14.216Z,19.90
2022-08-28T22:33:42.396Z,19.90
2022-08-28T22:36:10.733Z,19.90
2022-08-28T22:38:39.149Z,19.90
2022-08-28T22:41:06.951Z,19.80
2022-08-28T22:43:33.995Z,19.80
2022-08-28T22:46:00.791Z,19.70
2022-08-28T22:48:27.525Z,19.80
2022-08-28T22:51:09.411Z,19.80
2022-08-28T22:53:36.632Z,19.70
2022-08-28T22:56:03.715Z,19.70
2022-08-28T22:58:32.485Z,19.70
2022-08-28T23:01:12.974Z,19.60
2022-08-28T23:03:40.690Z,19.60
2022-08-28T23:06:07.732Z,19.60
2022-08-28T23:08:34.907Z,19.50
2022-08-28T23:11:01.790Z,19.50
2022-08-28T23:13:29.664Z,19.50
2022-08-28T23:15:56.523Z,19.50
2022-08-28T23:18:23.208Z,19.40
2022-08-28T23:20:50.497Z,19.40
2022-08-28T23:23:18.494Z,19.40
2022-08-28T23:25:45.301Z,19.40
2022-08-28T23:28:12.094Z,19.40
2022-08-28T23:30:41.210Z,19.30
2022-08-28T23:33:19.765Z,19.30
2022-08-28T23:35:51.276Z,19.30
2022-08-28T23:38:18.017Z,19.30
2022-08-28T23:40:44.826Z,19.30
2022-08-28T23:43:11.837Z,19.30
2022-08-28T23:45:42.459Z,19.30
2022-08-28T23:48:09.359Z,19.20
2022-08-28T23:50:36.344Z,19.30
2022-08-28T23:53:04.439Z,19.20
2022-08-28T23:55:31.751Z,19.20
2022-08-28T23:58:00.297Z,19.10
